sensor_id;sensor_type;location;lat;lon;timestamp;temperature;humidity
35129;DHT22;21301;43.626;10.580;2023-05-07T00:01:59;15.80;99.90
35129;DHT22;21301;43.626;10.580;2023-05-07T00:04:25;15.50;99.90
35129;DHT22;21301;43.626;10.580;2023-05-07T00:06:50;15.10;99.90
35129;DHT22;21301;43.626;10.580;2023-05-07T00:09:16;15.20;99.90
35129;DHT22;21301;43.626;10.580;2023-05-07T00:11:42;15.50;99.90
35129;DHT22;21301;43.626;10.580;2023-05-07T00:14:08;15.70;99.90
35129;DHT22;21301;43.626;10.580;2023-05-07T00:16:33;15.90;99.90
35129;DHT22;21301;43.626;10.580;2023-05-07T00:18:59;15.90;99.90
35129;DHT22;21301;43.626;10.580;2023-05-07T00:21:25;16.00;99.90
35129;DHT22;21301;43.626;10.580;2023-05-07T00:23:54;16.00;99.90
35129;DHT22;21301;43.626;10.580;2023-05-07T00:26:20;16.00;99.90
35129;DHT22;21301;43.626;10.580;2023-05-07T00:28:49;15.90;99.90
35129;DHT22;21301;43.626;10.580;2023-05-07T00:31:14;15.70;99.90
35129;DHT22;21301;43.626;10.580;2023-05-07T00:33:40;15.40;99.90
35129;DHT22;21301;43.626;10.580;2023-05-07T00:36:06;15.20;99.90
35129;DHT22;21301;43.626;10.580;2023-05-07T00:38:32;15.10;99.90
35129;DHT22;21301;43.626;10.580;2023-05-07T00:40:57;15.00;99.90
35129;DHT22;21301;43.626;10.580;2023-05-07T00:43:23;14.90;99.90
35129;DHT22;21301;43.626;10.580;2023-05-07T00:45:49;14.80;99.90
35129;DHT22;21301;43.626;10.580;2023-05-07T00:48:15;14.70;99.90
35129;DHT22;21301;43.626;10.580;2023-05-07T00:50:41;14.60;99.90
35129;DHT22;21301;43.626;10.580;2023-05-07T00:53:07;14.50;99.90
35129;DHT22;21301;43.626;10.580;2023-05-07T00:55:34;14.50;99.90
35129;DHT22;21301;43.626;10.580;2023-05-07T00:58:01;14.40;99.90
35129;DHT22;21301;43.626;10.580;2023-05-07T01:00:27;14.30;99.90
35129;DHT22;21301;43.626;10.580;2023-05-07T01:02:53;14.30;99.90
35129;DHT22;21301;43.626;10.580;2023-05-07T01:05:20;14.30;99.90
35129;DHT22;21301;43.626;10.580;2023-05-07T01:07:47;14.20;99.90
35129;DHT22;21301;43.626;10.580;2023-05-07T01:10:15;14.20;99.90
35129;DHT22;21301;43.626;10.580;2023-05-07T01:12:42;14.10;99.90
35129;DHT22;21301;43.626;10.580;2023-05-07T01:15:09;14.00;99.90
35129;DHT22;21301;43.626;10.580;2023-05-07T01:17:36;14.00;99.90
35129;DHT22;21301;43.626;10.580;2023-05-07T01:20:07;14.00;99.90
35129;DHT22;21301;43.626;10.580;2023-05-07T01:22:40;13.90;99.90
35129;DHT22;21301;43.626;10.580;2023-05-07T01:25:07;13.90;99.90
35129;DHT22;21301;43.626;10.580;2023-05-07T01:27:35;13.80;99.90
35129;DHT22;21301;43.626;10.580;2023-05-07T01:30:03;13.70;99.90
35129;DHT22;21301;43.626;10.580;2023-05-07T01:32:42;13.70;99.90
35129;DHT22;21301;43.626;10.580;2023-05-07T01:35:11;13.70;99.90
35129;DHT22;21301;43.626;10.580;2023-05-07T01:37:39;13.60;99.90
35129;DHT22;21301;43.626;10.580;2023-05-07T01:40:06;13.60;99.90
35129;DHT22;21301;43.626;10.580;2023-05-07T01:42:32;13.60;99.90
35129;DHT22;21301;43.626;10.580;2023-05-07T01:44:59;13.40;99.90
35129;DHT22;21301;43.626;10.580;2023-05-07T01:47:25;13.40;99.90
35129;DHT22;21301;43.626;10.580;2023-05-07T01:49:52;13.30;99.90
35129;DHT22;21301;43.626;10.580;2023-05-07T01:52:18;13.30;99.90
35129;DHT22;21301;43.626;10.580;2023-05-07T01:54:44;13.20;99.90
35129;DHT22;21301;43.626;10.580;2023-05-07T01:57:10;13.30;99.90
35129;DHT22;21301;43.626;10.580;2023-05-07T01:59:36;13.30;99.90
35129;DHT22;21301;43.626;10.580;2023-05-07T02:02:02;13.20;99.90
35129;DHT22;21301;43.626;10.580;2023-05-07T02:04:29;13.20;99.90
35129;DHT22;21301;43.626;10.580;2023-05-07T02:06:55;13.20;99.90
35129;DHT22;21301;43.626;10.580;2023-05-07T02:09:21;13.10;99.90
35129;DHT22;21301;43.626;10.580;2023-05-07T02:11:49;13.10;99.90
35129;DHT22;21301;43.626;10.580;2023-05-07T02:14:17;13.10;99.90
35129;DHT22;21301;43.626;10.580;2023-05-07T02:16:43;13.10;99.90
35129;DHT22;21301;43.626;10.580;2023-05-07T02:19:11;13.10;99.90
35129;DHT22;21301;43.626;10.580;2023-05-07T02:21:36;13.10;99.90
35129;DHT22;21301;43.626;10.580;2023-05-07T02:24:02;13.10;99.90
35129;DHT22;21301;43.626;10.580;2023-05-07T02:26:28;13.00;99.90
35129;DHT22;21301;43.626;10.580;2023-05-07T02:28:54;13.00;99.90
35129;DHT22;21301;43.626;10.580;2023-05-07T02:31:20;13.00;99.90
35129;DHT22;21301;43.626;10.580;2023-05-07T02:33:46;13.00;99.90
35129;DHT22;21301;43.626;10.580;2023-05-07T02:36:12;13.00;99.90
35129;DHT22;21301;43.626;10.580;2023-05-07T02:38:51;13.00;99.90
35129;DHT22;21301;43.626;10.580;2023-05-07T02:41:16;12.90;99.90
35129;DHT22;21301;43.626;10.580;2023-05-07T02:43:42;12.80;99.90
35129;DHT22;21301;43.626;10.580;2023-05-07T02:46:09;12.70;99.90
35129;DHT22;21301;43.626;10.580;2023-05-07T02:48:39;12.60;99.90
35129;DHT22;21301;43.626;10.580;2023-05-07T02:51:05;12.70;99.90
35129;DHT22;21301;43.626;10.580;2023-05-07T02:53:32;12.60;99.90
35129;DHT22;21301;43.626;10.580;2023-05-07T02:55:59;12.60;99.90
35129;DHT22;21301;43.626;10.580;2023-05-07T02:58:26;12.60;99.90
35129;DHT22;21301;43.626;10.580;2023-05-07T03:00:52;12.50;99.90
35129;DHT22;21301;43.626;10.580;2023-05-07T03:03:40;12.50;99.90
35129;DHT22;21301;43.626;10.580;2023-05-07T03:06:06;12.60;99.90
35129;DHT22;21301;43.626;10.580;2023-05-07T03:08:32;12.70;99.90
35129;DHT22;21301;43.626;10.580;2023-05-07T03:10:58;12.80;99.90
35129;DHT22;21301;43.626;10.580;2023-05-07T03:13:24;12.80;99.90
35129;DHT22;21301;43.626;10.580;2023-05-07T03:15:52;12.90;99.90
35129;DHT22;21301;43.626;10.580;2023-05-07T03:18:17;12.90;99.90
35129;DHT22;21301;43.626;10.580;2023-05-07T03:20:43;12.90;99.90
35129;DHT22;21301;43.626;10.580;2023-05-07T03:23:09;12.90;99.90
35129;DHT22;21301;43.626;10.580;2023-05-07T03:25:35;12.80;99.90
35129;DHT22;21301;43.626;10.580;2023-05-07T03:28:01;12.80;99.90
35129;DHT22;21301;43.626;10.580;2023-05-07T03:30:36;12.80;99.90
35129;DHT22;21301;43.626;10.580;2023-05-07T03:33:02;12.80;99.90
35129;DHT22;21301;43.626;10.580;2023-05-07T03:35:28;12.80;99.90
35129;DHT22;21301;43.626;10.580;2023-05-07T03:37:55;12.70;99.90
35129;DHT22;21301;43.626;10.580;2023-05-07T03:40:21;12.70;99.90
35129;DHT22;21301;43.626;10.580;2023-05-07T03:42:51;12.70;99.90
35129;DHT22;21301;43.626;10.580;2023-05-07T03:45:20;12.60;99.90
35129;DHT22;21301;43.626;10.580;2023-05-07T03:47:54;12.60;99.90
35129;DHT22;21301;43.626;10.580;2023-05-07T03:50:21;12.60;99.90
35129;DHT22;21301;43.626;10.580;2023-05-07T03:52:47;12.50;99.90
35129;DHT22;21301;43.626;10.580;2023-05-07T03:55:15;12.50;99.90
35129;DHT22;21301;43.626;10.580;2023-05-07T03:57:47;12.50;99.90
35129;DHT22;21301;43.626;10.580;2023-05-07T04:00:13;12.50;99.90
35129;DHT22;21301;43.626;10.580;2023-05-07T04:02:48;12.50;99.90
35129;DHT22;21301;43.626;10.580;2023-05-07T04:05:18;12.60;99.90
35129;DHT22;21301;43.626;10.580;2023-05-07T04:07:48;12.50;99.90
35129;DHT22;21301;43.626;10.580;2023-05-07T04:10:18;12.50;99.90
35129;DHT22;21301;43.626;10.580;2023-05-07T04:12:46;12.50;99.90
35129;DHT22;21301;43.626;10.580;2023-05-07T04:15:17;12.50;99.90
35129;DHT22;21301;43.626;10.580;2023-05-07T04:17:43;12.50;99.90
35129;DHT22;21301;43.626;10.580;2023-05-07T04:20:14;12.60;99.90
35129;DHT22;21301;43.626;10.580;2023-05-07T04:22:41;12.70;99.90
35129;DHT22;21301;43.626;10.580;2023-05-07T04:25:08;12.80;99.90
35129;DHT22;21301;43.626;10.580;2023-05-07T04:27:35;13.00;99.90
35129;DHT22;21301;43.626;10.580;2023-05-07T04:30:02;13.20;99.90
35129;DHT22;21301;43.626;10.580;2023-05-07T04:32:32;13.30;99.90
35129;DHT22;21301;43.626;10.580;2023-05-07T04:34:58;13.50;99.90
35129;DHT22;21301;43.626;10.580;2023-05-07T04:37:26;13.70;99.90
35129;DHT22;21301;43.626;10.580;2023-05-07T04:39:52;13.90;99.90
35129;DHT22;21301;43.626;10.580;2023-05-07T04:42:19;13.90;99.90
35129;DHT22;21301;43.626;10.580;2023-05-07T04:44:45;13.90;99.90
35129;DHT22;21301;43.626;10.580;2023-05-07T04:47:11;13.90;99.90
35129;DHT22;21301;43.626;10.580;2023-05-07T04:49:38;14.20;99.90
35129;DHT22;21301;43.626;10.580;2023-05-07T04:52:05;14.30;99.90
35129;DHT22;21301;43.626;10.580;2023-05-07T04:54:32;14.20;99.90
35129;DHT22;21301;43.626;10.580;2023-05-07T04:56:59;14.30;99.90
35129;DHT22;21301;43.626;10.580;2023-05-07T04:59:25;14.60;99.90
35129;DHT22;21301;43.626;10.580;2023-05-07T05:01:51;14.60;99.90
35129;DHT22;21301;43.626;10.580;2023-05-07T05:04:17;14.80;99.90
35129;DHT22;21301;43.626;10.580;2023-05-07T05:06:43;15.10;99.90
35129;DHT22;21301;43.626;10.580;2023-05-07T05:09:10;15.10;99.90
35129;DHT22;21301;43.626;10.580;2023-05-07T05:11:37;15.30;99.90
35129;DHT22;21301;43.626;10.580;2023-05-07T05:14:03;15.60;99.90
35129;DHT22;21301;43.626;10.580;2023-05-07T05:16:29;15.60;99.90
35129;DHT22;21301;43.626;10.580;2023-05-07T05:18:55;15.60;99.90
35129;DHT22;21301;43.626;10.580;2023-05-07T05:21:21;15.50;99.90
35129;DHT22;21301;43.626;10.580;2023-05-07T05:23:50;15.40;99.90
35129;DHT22;21301;43.626;10.580;2023-05-07T05:26:19;15.20;99.90
35129;DHT22;21301;43.626;10.580;2023-05-07T05:28:47;15.20;99.90
35129;DHT22;21301;43.626;10.580;2023-05-07T05:31:15;15.10;99.90
35129;DHT22;21301;43.626;10.580;2023-05-07T05:33:41;15.20;99.90
35129;DHT22;21301;43.626;10.580;2023-05-07T05:36:09;15.40;99.90
35129;DHT22;21301;43.626;10.580;2023-05-07T05:38:36;15.50;99.90
35129;DHT22;21301;43.626;10.580;2023-05-07T05:41:03;15.50;99.90
35129;DHT22;21301;43.626;10.580;2023-05-07T05:43:29;15.50;99.90
35129;DHT22;21301;43.626;10.580;2023-05-07T05:45:56;15.60;99.90
35129;DHT22;21301;43.626;10.580;2023-05-07T05:48:22;15.90;99.90
35129;DHT22;21301;43.626;10.580;2023-05-07T05:50:49;15.90;99.90
35129;DHT22;21301;43.626;10.580;2023-05-07T05:53:17;16.10;99.90
35129;DHT22;21301;43.626;10.580;2023-05-07T05:55:43;16.30;99.90
35129;DHT22;21301;43.626;10.580;2023-05-07T05:58:10;16.20;99.90
35129;DHT22;21301;43.626;10.580;2023-05-07T06:00:39;16.40;99.90
35129;DHT22;21301;43.626;10.580;2023-05-07T06:03:06;16.50;99.90
35129;DHT22;21301;43.626;10.580;2023-05-07T06:05:33;16.50;99.90
35129;DHT22;21301;43.626;10.580;2023-05-07T06:07:59;16.70;99.90
35129;DHT22;21301;43.626;10.580;2023-05-07T06:10:30;16.80;99.90
35129;DHT22;21301;43.626;10.580;2023-05-07T06:12:59;16.80;99.90
35129;DHT22;21301;43.626;10.580;2023-05-07T06:15:25;17.10;99.90
35129;DHT22;21301;43.626;10.580;2023-05-07T06:17:51;17.30;99.90
35129;DHT22;21301;43.626;10.580;2023-05-07T06:20:17;17.40;99.90
35129;DHT22;21301;43.626;10.580;2023-05-07T06:22:44;17.30;99.90
35129;DHT22;21301;43.626;10.580;2023-05-07T06:25:11;17.40;99.90
35129;DHT22;21301;43.626;10.580;2023-05-07T06:27:38;17.40;99.90
35129;DHT22;21301;43.626;10.580;2023-05-07T06:30:06;17.30;99.90
35129;DHT22;21301;43.626;10.580;2023-05-07T06:32:32;17.40;99.90
35129;DHT22;21301;43.626;10.580;2023-05-07T06:34:58;17.60;99.90
35129;DHT22;21301;43.626;10.580;2023-05-07T06:37:24;17.70;99.90
35129;DHT22;21301;43.626;10.580;2023-05-07T06:39:57;18.00;99.90
35129;DHT22;21301;43.626;10.580;2023-05-07T06:42:23;18.50;99.90
35129;DHT22;21301;43.626;10.580;2023-05-07T06:44:49;18.60;99.90
35129;DHT22;21301;43.626;10.580;2023-05-07T06:47:17;18.90;99.90
35129;DHT22;21301;43.626;10.580;2023-05-07T06:49:45;19.10;99.90
35129;DHT22;21301;43.626;10.580;2023-05-07T06:52:15;19.10;99.90
35129;DHT22;21301;43.626;10.580;2023-05-07T06:54:41;19.10;99.90
35129;DHT22;21301;43.626;10.580;2023-05-07T06:57:08;19.10;99.90
35129;DHT22;21301;43.626;10.580;2023-05-07T06:59:34;19.20;99.90
35129;DHT22;21301;43.626;10.580;2023-05-07T07:02:00;19.30;99.90
35129;DHT22;21301;43.626;10.580;2023-05-07T07:04:26;19.30;99.90
35129;DHT22;21301;43.626;10.580;2023-05-07T07:07:00;19.50;99.90
35129;DHT22;21301;43.626;10.580;2023-05-07T07:09:27;19.60;99.90
35129;DHT22;21301;43.626;10.580;2023-05-07T07:11:54;19.90;99.90
35129;DHT22;21301;43.626;10.580;2023-05-07T07:14:20;20.20;99.90
35129;DHT22;21301;43.626;10.580;2023-05-07T07:16:49;20.40;99.90
35129;DHT22;21301;43.626;10.580;2023-05-07T07:19:17;20.50;99.90
35129;DHT22;21301;43.626;10.580;2023-05-07T07:21:44;20.90;99.90
35129;DHT22;21301;43.626;10.580;2023-05-07T07:24:13;21.50;99.90
35129;DHT22;21301;43.626;10.580;2023-05-07T07:26:45;21.70;99.90
35129;DHT22;21301;43.626;10.580;2023-05-07T07:29:11;22.20;99.90
35129;DHT22;21301;43.626;10.580;2023-05-07T07:31:38;22.40;99.90
35129;DHT22;21301;43.626;10.580;2023-05-07T07:34:04;22.60;99.90
35129;DHT22;21301;43.626;10.580;2023-05-07T07:36:30;22.40;99.90
35129;DHT22;21301;43.626;10.580;2023-05-07T07:38:56;22.30;99.90
35129;DHT22;21301;43.626;10.580;2023-05-07T07:41:22;22.30;99.90
35129;DHT22;21301;43.626;10.580;2023-05-07T07:43:49;22.60;99.90
35129;DHT22;21301;43.626;10.580;2023-05-07T07:46:15;22.20;99.90
35129;DHT22;21301;43.626;10.580;2023-05-07T07:48:42;22.20;99.90
35129;DHT22;21301;43.626;10.580;2023-05-07T07:51:08;22.30;99.90
35129;DHT22;21301;43.626;10.580;2023-05-07T07:53:34;22.50;99.90
35129;DHT22;21301;43.626;10.580;2023-05-07T07:56:00;22.70;99.90
35129;DHT22;21301;43.626;10.580;2023-05-07T07:58:30;22.70;99.90
35129;DHT22;21301;43.626;10.580;2023-05-07T08:00:56;22.80;99.90
35129;DHT22;21301;43.626;10.580;2023-05-07T08:03:23;22.90;99.90
35129;DHT22;21301;43.626;10.580;2023-05-07T08:05:53;23.30;99.90
35129;DHT22;21301;43.626;10.580;2023-05-07T08:08:19;23.30;99.90
35129;DHT22;21301;43.626;10.580;2023-05-07T08:10:45;23.10;99.90
35129;DHT22;21301;43.626;10.580;2023-05-07T08:13:18;23.10;99.90
35129;DHT22;21301;43.626;10.580;2023-05-07T08:15:44;23.20;99.90
35129;DHT22;21301;43.626;10.580;2023-05-07T08:18:11;23.40;99.90
35129;DHT22;21301;43.626;10.580;2023-05-07T08:20:38;23.80;99.90
35129;DHT22;21301;43.626;10.580;2023-05-07T08:23:07;24.00;99.90
35129;DHT22;21301;43.626;10.580;2023-05-07T08:25:34;24.10;99.90
35129;DHT22;21301;43.626;10.580;2023-05-07T08:28:01;24.40;99.90
35129;DHT22;21301;43.626;10.580;2023-05-07T08:30:27;24.40;99.90
35129;DHT22;21301;43.626;10.580;2023-05-07T08:32:53;24.30;99.90
35129;DHT22;21301;43.626;10.580;2023-05-07T08:35:19;24.70;99.90
35129;DHT22;21301;43.626;10.580;2023-05-07T08:37:44;24.60;99.90
35129;DHT22;21301;43.626;10.580;2023-05-07T08:40:11;24.50;99.90
35129;DHT22;21301;43.626;10.580;2023-05-07T08:42:38;25.10;99.90
35129;DHT22;21301;43.626;10.580;2023-05-07T08:45:09;25.20;99.60
35129;DHT22;21301;43.626;10.580;2023-05-07T08:47:44;25.30;99.00
35129;DHT22;21301;43.626;10.580;2023-05-07T08:50:11;25.00;99.60
35129;DHT22;21301;43.626;10.580;2023-05-07T08:52:37;25.50;99.60
35129;DHT22;21301;43.626;10.580;2023-05-07T08:55:04;25.30;99.40
35129;DHT22;21301;43.626;10.580;2023-05-07T08:57:32;25.50;98.90
35129;DHT22;21301;43.626;10.580;2023-05-07T08:59:58;25.60;99.50
35129;DHT22;21301;43.626;10.580;2023-05-07T09:02:24;25.50;98.90
35129;DHT22;21301;43.626;10.580;2023-05-07T09:04:50;25.30;99.50
35129;DHT22;21301;43.626;10.580;2023-05-07T09:07:16;25.40;99.10
35129;DHT22;21301;43.626;10.580;2023-05-07T09:09:44;25.70;99.10
35129;DHT22;21301;43.626;10.580;2023-05-07T09:12:11;26.00;98.90
35129;DHT22;21301;43.626;10.580;2023-05-07T09:14:38;26.30;98.70
35129;DHT22;21301;43.626;10.580;2023-05-07T09:17:04;26.20;98.40
35129;DHT22;21301;43.626;10.580;2023-05-07T09:19:30;26.30;98.70
35129;DHT22;21301;43.626;10.580;2023-05-07T09:22:00;26.60;98.50
35129;DHT22;21301;43.626;10.580;2023-05-07T09:24:30;26.80;98.50
35129;DHT22;21301;43.626;10.580;2023-05-07T09:27:01;26.70;98.20
35129;DHT22;21301;43.626;10.580;2023-05-07T09:29:28;26.70;98.30
35129;DHT22;21301;43.626;10.580;2023-05-07T09:31:56;26.80;98.50
35129;DHT22;21301;43.626;10.580;2023-05-07T09:34:22;27.10;98.00
35129;DHT22;21301;43.626;10.580;2023-05-07T09:36:48;26.70;98.00
35129;DHT22;21301;43.626;10.580;2023-05-07T09:39:14;26.90;98.00
35129;DHT22;21301;43.626;10.580;2023-05-07T09:41:45;27.10;97.80
35129;DHT22;21301;43.626;10.580;2023-05-07T09:44:17;26.90;97.30
35129;DHT22;21301;43.626;10.580;2023-05-07T09:46:53;26.70;98.10
35129;DHT22;21301;43.626;10.580;2023-05-07T09:49:29;26.70;97.10
35129;DHT22;21301;43.626;10.580;2023-05-07T09:52:05;26.50;97.90
35129;DHT22;21301;43.626;10.580;2023-05-07T09:54:36;26.80;97.70
35129;DHT22;21301;43.626;10.580;2023-05-07T09:57:05;26.70;97.70
35129;DHT22;21301;43.626;10.580;2023-05-07T09:59:33;26.80;97.90
35129;DHT22;21301;43.626;10.580;2023-05-07T10:02:04;26.70;97.90
35129;DHT22;21301;43.626;10.580;2023-05-07T10:04:32;26.40;97.90
35129;DHT22;21301;43.626;10.580;2023-05-07T10:06:59;26.50;98.10
35129;DHT22;21301;43.626;10.580;2023-05-07T10:09:26;26.70;98.00
35129;DHT22;21301;43.626;10.580;2023-05-07T10:11:52;27.20;97.50
35129;DHT22;21301;43.626;10.580;2023-05-07T10:14:21;27.20;97.00
35129;DHT22;21301;43.626;10.580;2023-05-07T10:16:48;26.90;97.60
35129;DHT22;21301;43.626;10.580;2023-05-07T10:19:16;26.70;97.60
35129;DHT22;21301;43.626;10.580;2023-05-07T10:21:54;27.10;97.70
35129;DHT22;21301;43.626;10.580;2023-05-07T10:24:32;27.30;96.90
35129;DHT22;21301;43.626;10.580;2023-05-07T10:27:02;27.60;97.10
35129;DHT22;21301;43.626;10.580;2023-05-07T10:32:51;27.30;97.10
35129;DHT22;21301;43.626;10.580;2023-05-07T10:35:27;27.00;97.50
35129;DHT22;21301;43.626;10.580;2023-05-07T10:37:55;27.10;97.80
35129;DHT22;21301;43.626;10.580;2023-05-07T10:40:24;27.00;98.00
35129;DHT22;21301;43.626;10.580;2023-05-07T10:43:02;27.10;98.20
35129;DHT22;21301;43.626;10.580;2023-05-07T10:45:36;26.90;98.10
35129;DHT22;21301;43.626;10.580;2023-05-07T10:50:44;27.40;97.70
35129;DHT22;21301;43.626;10.580;2023-05-07T10:58:50;27.00;97.30
35129;DHT22;21301;43.626;10.580;2023-05-07T11:01:58;26.90;97.90
35129;DHT22;21301;43.626;10.580;2023-05-07T11:05:19;27.20;98.50
35129;DHT22;21301;43.626;10.580;2023-05-07T11:07:59;26.80;97.80
35129;DHT22;21301;43.626;10.580;2023-05-07T11:10:53;26.60;97.00
35129;DHT22;21301;43.626;10.580;2023-05-07T11:13:46;26.80;98.10
35129;DHT22;21301;43.626;10.580;2023-05-07T11:16:32;26.90;98.10
35129;DHT22;21301;43.626;10.580;2023-05-07T11:25:17;26.70;98.70
35129;DHT22;21301;43.626;10.580;2023-05-07T11:27:53;26.60;98.10
35129;DHT22;21301;43.626;10.580;2023-05-07T11:30:19;26.10;97.90
35129;DHT22;21301;43.626;10.580;2023-05-07T11:32:47;25.70;97.90
35129;DHT22;21301;43.626;10.580;2023-05-07T11:35:15;25.50;98.10
35129;DHT22;21301;43.626;10.580;2023-05-07T11:37:43;25.20;98.10
35129;DHT22;21301;43.626;10.580;2023-05-07T11:40:10;25.50;99.00
35129;DHT22;21301;43.626;10.580;2023-05-07T11:42:38;25.50;98.90
35129;DHT22;21301;43.626;10.580;2023-05-07T11:45:05;25.60;98.50
35129;DHT22;21301;43.626;10.580;2023-05-07T11:47:32;25.60;98.70
35129;DHT22;21301;43.626;10.580;2023-05-07T11:50:06;25.60;98.60
35129;DHT22;21301;43.626;10.580;2023-05-07T11:52:33;26.10;98.50
35129;DHT22;21301;43.626;10.580;2023-05-07T11:55:00;26.20;98.00
35129;DHT22;21301;43.626;10.580;2023-05-07T11:57:27;26.20;97.90
35129;DHT22;21301;43.626;10.580;2023-05-07T11:59:58;26.10;98.00
35129;DHT22;21301;43.626;10.580;2023-05-07T12:02:24;25.70;98.30
35129;DHT22;21301;43.626;10.580;2023-05-07T12:04:54;25.70;98.40
35129;DHT22;21301;43.626;10.580;2023-05-07T12:07:21;25.60;97.90
35129;DHT22;21301;43.626;10.580;2023-05-07T12:09:47;25.90;98.60
35129;DHT22;21301;43.626;10.580;2023-05-07T12:12:13;25.80;98.20
35129;DHT22;21301;43.626;10.580;2023-05-07T12:14:44;25.90;98.40
35129;DHT22;21301;43.626;10.580;2023-05-07T12:17:11;25.80;98.40
35129;DHT22;21301;43.626;10.580;2023-05-07T12:19:40;25.80;98.20
35129;DHT22;21301;43.626;10.580;2023-05-07T12:22:08;26.10;98.00
35129;DHT22;21301;43.626;10.580;2023-05-07T12:24:57;26.10;97.80
35129;DHT22;21301;43.626;10.580;2023-05-07T12:27:22;26.00;97.80
35129;DHT22;21301;43.626;10.580;2023-05-07T12:29:49;26.20;98.50
35129;DHT22;21301;43.626;10.580;2023-05-07T12:32:16;26.10;98.00
35129;DHT22;21301;43.626;10.580;2023-05-07T12:34:43;26.00;98.60
35129;DHT22;21301;43.626;10.580;2023-05-07T12:37:10;25.80;98.20
35129;DHT22;21301;43.626;10.580;2023-05-07T12:39:36;25.80;98.80
35129;DHT22;21301;43.626;10.580;2023-05-07T12:42:02;25.80;98.60
35129;DHT22;21301;43.626;10.580;2023-05-07T12:44:32;25.60;98.00
35129;DHT22;21301;43.626;10.580;2023-05-07T12:47:01;26.10;98.50
35129;DHT22;21301;43.626;10.580;2023-05-07T12:49:27;25.90;98.20
35129;DHT22;21301;43.626;10.580;2023-05-07T12:51:53;26.10;98.30
35129;DHT22;21301;43.626;10.580;2023-05-07T12:54:33;25.90;97.90
35129;DHT22;21301;43.626;10.580;2023-05-07T12:57:06;25.70;98.10
35129;DHT22;21301;43.626;10.580;2023-05-07T12:59:33;25.50;98.00
35129;DHT22;21301;43.626;10.580;2023-05-07T13:01:59;25.40;97.70
35129;DHT22;21301;43.626;10.580;2023-05-07T13:04:25;25.40;97.40
35129;DHT22;21301;43.626;10.580;2023-05-07T13:06:51;25.60;97.60
35129;DHT22;21301;43.626;10.580;2023-05-07T13:09:17;25.60;96.70
35129;DHT22;21301;43.626;10.580;2023-05-07T13:11:43;25.70;97.00
35129;DHT22;21301;43.626;10.580;2023-05-07T13:14:08;25.80;97.50
35129;DHT22;21301;43.626;10.580;2023-05-07T13:16:34;25.90;97.30
35129;DHT22;21301;43.626;10.580;2023-05-07T13:19:00;25.70;96.80
35129;DHT22;21301;43.626;10.580;2023-05-07T13:21:26;25.80;97.00
35129;DHT22;21301;43.626;10.580;2023-05-07T13:23:52;25.80;96.90
35129;DHT22;21301;43.626;10.580;2023-05-07T13:26:18;26.00;96.80
35129;DHT22;21301;43.626;10.580;2023-05-07T13:28:44;26.30;97.20
35129;DHT22;21301;43.626;10.580;2023-05-07T13:31:10;26.50;97.00
35129;DHT22;21301;43.626;10.580;2023-05-07T13:33:35;26.60;96.70
35129;DHT22;21301;43.626;10.580;2023-05-07T13:36:02;26.40;96.60
35129;DHT22;21301;43.626;10.580;2023-05-07T13:38:30;26.30;96.50
35129;DHT22;21301;43.626;10.580;2023-05-07T13:40:56;26.70;96.20
35129;DHT22;21301;43.626;10.580;2023-05-07T13:43:22;26.40;96.60
35129;DHT22;21301;43.626;10.580;2023-05-07T13:45:47;26.30;96.80
35129;DHT22;21301;43.626;10.580;2023-05-07T13:48:13;26.20;96.80
35129;DHT22;21301;43.626;10.580;2023-05-07T13:50:39;26.20;96.50
35129;DHT22;21301;43.626;10.580;2023-05-07T13:53:05;25.90;96.80
35129;DHT22;21301;43.626;10.580;2023-05-07T13:55:31;25.70;97.40
35129;DHT22;21301;43.626;10.580;2023-05-07T13:57:59;25.60;97.30
35129;DHT22;21301;43.626;10.580;2023-05-07T14:00:26;25.30;97.30
35129;DHT22;21301;43.626;10.580;2023-05-07T14:02:52;25.10;97.60
35129;DHT22;21301;43.626;10.580;2023-05-07T14:05:18;25.20;97.80
35129;DHT22;21301;43.626;10.580;2023-05-07T14:07:45;25.10;97.90
35129;DHT22;21301;43.626;10.580;2023-05-07T14:10:12;25.00;97.90
35129;DHT22;21301;43.626;10.580;2023-05-07T14:12:38;24.80;98.10
35129;DHT22;21301;43.626;10.580;2023-05-07T14:15:04;24.70;98.20
35129;DHT22;21301;43.626;10.580;2023-05-07T14:17:30;24.70;98.10
35129;DHT22;21301;43.626;10.580;2023-05-07T14:19:57;24.70;98.30
35129;DHT22;21301;43.626;10.580;2023-05-07T14:22:23;24.60;98.20
35129;DHT22;21301;43.626;10.580;2023-05-07T14:24:49;24.50;97.80
35129;DHT22;21301;43.626;10.580;2023-05-07T14:27:15;24.30;97.30
35129;DHT22;21301;43.626;10.580;2023-05-07T14:29:41;24.00;97.80
35129;DHT22;21301;43.626;10.580;2023-05-07T14:32:08;23.70;97.90
35129;DHT22;21301;43.626;10.580;2023-05-07T14:34:33;23.60;98.40
35129;DHT22;21301;43.626;10.580;2023-05-07T14:37:00;23.40;98.50
35129;DHT22;21301;43.626;10.580;2023-05-07T14:39:26;23.50;99.00
35129;DHT22;21301;43.626;10.580;2023-05-07T14:41:52;23.40;98.90
35129;DHT22;21301;43.626;10.580;2023-05-07T14:44:20;23.30;99.20
35129;DHT22;21301;43.626;10.580;2023-05-07T14:46:46;23.10;99.90
35129;DHT22;21301;43.626;10.580;2023-05-07T14:49:13;23.00;99.90
35129;DHT22;21301;43.626;10.580;2023-05-07T14:51:44;22.90;99.90
35129;DHT22;21301;43.626;10.580;2023-05-07T14:54:10;22.90;99.90
35129;DHT22;21301;43.626;10.580;2023-05-07T14:56:36;22.80;99.90
35129;DHT22;21301;43.626;10.580;2023-05-07T14:59:03;22.70;99.90
35129;DHT22;21301;43.626;10.580;2023-05-07T15:01:29;22.80;99.90
35129;DHT22;21301;43.626;10.580;2023-05-07T15:03:55;22.80;99.90
35129;DHT22;21301;43.626;10.580;2023-05-07T15:06:21;22.70;99.90
35129;DHT22;21301;43.626;10.580;2023-05-07T15:08:47;22.70;99.90
35129;DHT22;21301;43.626;10.580;2023-05-07T15:11:14;22.70;99.90
35129;DHT22;21301;43.626;10.580;2023-05-07T15:13:42;22.50;99.90
35129;DHT22;21301;43.626;10.580;2023-05-07T15:16:08;22.50;99.90
35129;DHT22;21301;43.626;10.580;2023-05-07T15:18:34;22.50;99.90
35129;DHT22;21301;43.626;10.580;2023-05-07T15:20:59;22.50;99.90
35129;DHT22;21301;43.626;10.580;2023-05-07T15:23:25;22.40;99.90
35129;DHT22;21301;43.626;10.580;2023-05-07T15:25:52;22.30;99.90
35129;DHT22;21301;43.626;10.580;2023-05-07T15:28:18;22.30;99.90
35129;DHT22;21301;43.626;10.580;2023-05-07T15:30:43;22.20;99.90
35129;DHT22;21301;43.626;10.580;2023-05-07T15:33:09;22.20;99.90
35129;DHT22;21301;43.626;10.580;2023-05-07T15:35:36;22.20;99.90
35129;DHT22;21301;43.626;10.580;2023-05-07T15:38:03;22.20;99.90